sensor_id;sensor_type;location;lat;lon;timestamp;P1;durP1;ratioP1;P2;durP2;ratioP2
47021;SDS011;32779;52.264;6.154;2023-05-07T00:00:21;15.52;;;12.32;;
47021;SDS011;32779;52.264;6.154;2023-05-07T00:05:12;15.10;;;12.50;;
47021;SDS011;32779;52.264;6.154;2023-05-07T00:10:04;19.92;;;14.40;;
47021;SDS011;32779;52.264;6.154;2023-05-07T00:12:31;15.85;;;13.98;;
47021;SDS011;32779;52.264;6.154;2023-05-07T00:14:58;18.85;;;14.63;;
47021;SDS011;32779;52.264;6.154;2023-05-07T00:17:25;16.67;;;14.25;;
47021;SDS011;32779;52.264;6.154;2023-05-07T00:19:50;17.40;;;14.27;;
47021;SDS011;32779;52.264;6.154;2023-05-07T00:22:16;18.58;;;15.02;;
47021;SDS011;32779;52.264;6.154;2023-05-07T00:24:42;16.98;;;14.23;;
47021;SDS011;32779;52.264;6.154;2023-05-07T00:29:33;18.92;;;16.00;;
47021;SDS011;32779;52.264;6.154;2023-05-07T00:34:24;19.48;;;15.52;;
47021;SDS011;32779;52.264;6.154;2023-05-07T00:39:15;18.23;;;16.05;;
47021;SDS011;32779;52.264;6.154;2023-05-07T00:44:06;23.88;;;17.05;;
47021;SDS011;32779;52.264;6.154;2023-05-07T00:48:57;18.80;;;15.90;;
47021;SDS011;32779;52.264;6.154;2023-05-07T00:51:24;23.48;;;16.45;;
47021;SDS011;32779;52.264;6.154;2023-05-07T00:53:52;20.13;;;16.98;;
47021;SDS011;32779;52.264;6.154;2023-05-07T00:58:45;20.67;;;18.40;;
47021;SDS011;32779;52.264;6.154;2023-05-07T01:03:36;19.63;;;16.33;;
47021;SDS011;32779;52.264;6.154;2023-05-07T01:08:28;18.67;;;16.23;;
47021;SDS011;32779;52.264;6.154;2023-05-07T01:10:55;21.42;;;17.45;;
47021;SDS011;32779;52.264;6.154;2023-05-07T01:13:22;19.95;;;16.77;;
47021;SDS011;32779;52.264;6.154;2023-05-07T01:15:49;22.05;;;16.88;;
47021;SDS011;32779;52.264;6.154;2023-05-07T01:18:15;22.02;;;18.23;;
47021;SDS011;32779;52.264;6.154;2023-05-07T01:23:07;19.98;;;17.85;;
47021;SDS011;32779;52.264;6.154;2023-05-07T01:25:33;19.75;;;17.65;;
47021;SDS011;32779;52.264;6.154;2023-05-07T01:27:59;19.88;;;17.77;;
47021;SDS011;32779;52.264;6.154;2023-05-07T01:30:26;21.75;;;17.25;;
47021;SDS011;32779;52.264;6.154;2023-05-07T01:32:56;20.08;;;17.98;;
47021;SDS011;32779;52.264;6.154;2023-05-07T01:35:27;19.35;;;16.85;;
47021;SDS011;32779;52.264;6.154;2023-05-07T01:37:57;18.10;;;16.27;;
47021;SDS011;32779;52.264;6.154;2023-05-07T01:40:23;20.02;;;17.27;;
47021;SDS011;32779;52.264;6.154;2023-05-07T01:42:50;19.33;;;17.27;;
47021;SDS011;32779;52.264;6.154;2023-05-07T01:45:17;23.00;;;20.00;;
47021;SDS011;32779;52.264;6.154;2023-05-07T01:47:42;21.73;;;18.60;;
47021;SDS011;32779;52.264;6.154;2023-05-07T01:52:35;21.98;;;18.75;;
47021;SDS011;32779;52.264;6.154;2023-05-07T01:55:03;21.20;;;18.80;;
47021;SDS011;32779;52.264;6.154;2023-05-07T01:57:29;21.40;;;19.05;;
47021;SDS011;32779;52.264;6.154;2023-05-07T01:59:55;22.58;;;20.05;;
47021;SDS011;32779;52.264;6.154;2023-05-07T02:02:21;22.38;;;20.00;;
47021;SDS011;32779;52.264;6.154;2023-05-07T02:04:46;23.13;;;20.60;;
47021;SDS011;32779;52.264;6.154;2023-05-07T02:07:12;24.13;;;20.73;;
47021;SDS011;32779;52.264;6.154;2023-05-07T02:12:03;21.83;;;19.63;;
47021;SDS011;32779;52.264;6.154;2023-05-07T02:16:54;26.55;;;22.13;;
47021;SDS011;32779;52.264;6.154;2023-05-07T02:19:20;24.23;;;21.73;;
47021;SDS011;32779;52.264;6.154;2023-05-07T02:21:46;23.92;;;21.00;;
47021;SDS011;32779;52.264;6.154;2023-05-07T02:24:12;21.13;;;18.98;;
47021;SDS011;32779;52.264;6.154;2023-05-07T02:26:39;24.75;;;20.55;;
47021;SDS011;32779;52.264;6.154;2023-05-07T02:29:05;28.05;;;20.85;;
47021;SDS011;32779;52.264;6.154;2023-05-07T02:31:30;22.58;;;20.17;;
47021;SDS011;32779;52.264;6.154;2023-05-07T02:36:21;24.42;;;20.63;;
47021;SDS011;32779;52.264;6.154;2023-05-07T02:41:12;21.88;;;19.65;;
47021;SDS011;32779;52.264;6.154;2023-05-07T02:46:04;21.33;;;19.20;;
47021;SDS011;32779;52.264;6.154;2023-05-07T02:48:30;20.92;;;18.70;;
47021;SDS011;32779;52.264;6.154;2023-05-07T02:50:56;21.17;;;18.98;;
47021;SDS011;32779;52.264;6.154;2023-05-07T02:53:22;25.20;;;20.35;;
47021;SDS011;32779;52.264;6.154;2023-05-07T02:55:50;23.20;;;20.77;;
47021;SDS011;32779;52.264;6.154;2023-05-07T02:58:17;22.40;;;20.00;;
47021;SDS011;32779;52.264;6.154;2023-05-07T03:00:42;21.98;;;19.70;;
47021;SDS011;32779;52.264;6.154;2023-05-07T03:05:34;21.95;;;19.70;;
47021;SDS011;32779;52.264;6.154;2023-05-07T03:10:25;22.40;;;20.10;;
47021;SDS011;32779;52.264;6.154;2023-05-07T03:15:16;23.27;;;20.83;;
47021;SDS011;32779;52.264;6.154;2023-05-07T03:20:07;23.00;;;20.65;;
47021;SDS011;32779;52.264;6.154;2023-05-07T03:22:34;23.30;;;20.80;;
47021;SDS011;32779;52.264;6.154;2023-05-07T03:25:00;23.83;;;21.35;;
47021;SDS011;32779;52.264;6.154;2023-05-07T03:29:51;23.98;;;21.58;;
47021;SDS011;32779;52.264;6.154;2023-05-07T03:34:42;23.77;;;20.65;;
47021;SDS011;32779;52.264;6.154;2023-05-07T03:39:33;26.90;;;22.55;;
47021;SDS011;32779;52.264;6.154;2023-05-07T03:41:58;24.58;;;21.98;;
47021;SDS011;32779;52.264;6.154;2023-05-07T03:46:49;26.65;;;20.83;;
47021;SDS011;32779;52.264;6.154;2023-05-07T03:49:15;26.13;;;21.95;;
47021;SDS011;32779;52.264;6.154;2023-05-07T03:51:40;24.58;;;21.65;;
47021;SDS011;32779;52.264;6.154;2023-05-07T03:54:06;24.98;;;21.20;;
47021;SDS011;32779;52.264;6.154;2023-05-07T03:58:57;28.83;;;20.85;;
47021;SDS011;32779;52.264;6.154;2023-05-07T04:03:48;28.10;;;21.77;;
47021;SDS011;32779;52.264;6.154;2023-05-07T04:08:41;22.20;;;19.30;;
47021;SDS011;32779;52.264;6.154;2023-05-07T04:13:32;24.55;;;20.00;;
47021;SDS011;32779;52.264;6.154;2023-05-07T04:15:58;23.25;;;18.77;;
47021;SDS011;32779;52.264;6.154;2023-05-07T04:20:49;23.80;;;19.08;;
47021;SDS011;32779;52.264;6.154;2023-05-07T04:23:15;28.38;;;19.83;;
47021;SDS011;32779;52.264;6.154;2023-05-07T04:25:40;25.85;;;19.30;;
47021;SDS011;32779;52.264;6.154;2023-05-07T04:30:32;25.20;;;19.67;;
47021;SDS011;32779;52.264;6.154;2023-05-07T04:32:57;31.40;;;20.70;;
47021;SDS011;32779;52.264;6.154;2023-05-07T04:37:48;24.73;;;19.45;;
47021;SDS011;32779;52.264;6.154;2023-05-07T04:40:14;23.70;;;18.77;;
47021;SDS011;32779;52.264;6.154;2023-05-07T04:42:40;23.63;;;20.10;;
47021;SDS011;32779;52.264;6.154;2023-05-07T04:45:06;27.15;;;20.17;;
47021;SDS011;32779;52.264;6.154;2023-05-07T04:47:33;25.35;;;19.92;;
47021;SDS011;32779;52.264;6.154;2023-05-07T04:49:59;27.95;;;20.38;;
47021;SDS011;32779;52.264;6.154;2023-05-07T04:54:50;31.38;;;20.65;;
47021;SDS011;32779;52.264;6.154;2023-05-07T04:59:42;27.48;;;19.90;;
47021;SDS011;32779;52.264;6.154;2023-05-07T05:02:09;29.60;;;20.83;;
47021;SDS011;32779;52.264;6.154;2023-05-07T05:04:35;27.05;;;21.05;;
47021;SDS011;32779;52.264;6.154;2023-05-07T05:07:02;27.85;;;21.23;;
47021;SDS011;32779;52.264;6.154;2023-05-07T05:09:29;27.77;;;20.95;;
47021;SDS011;32779;52.264;6.154;2023-05-07T05:11:54;26.23;;;20.92;;
47021;SDS011;32779;52.264;6.154;2023-05-07T05:14:20;33.85;;;20.92;;
47021;SDS011;32779;52.264;6.154;2023-05-07T05:19:11;29.30;;;20.48;;
47021;SDS011;32779;52.264;6.154;2023-05-07T05:21:37;30.13;;;22.70;;
47021;SDS011;32779;52.264;6.154;2023-05-07T05:24:02;30.52;;;21.27;;
47021;SDS011;32779;52.264;6.154;2023-05-07T05:28:54;26.80;;;20.15;;
47021;SDS011;32779;52.264;6.154;2023-05-07T05:31:19;27.80;;;21.05;;
47021;SDS011;32779;52.264;6.154;2023-05-07T05:36:10;33.78;;;21.73;;
47021;SDS011;32779;52.264;6.154;2023-05-07T05:38:37;27.60;;;21.00;;
47021;SDS011;32779;52.264;6.154;2023-05-07T05:41:03;29.17;;;21.58;;
47021;SDS011;32779;52.264;6.154;2023-05-07T05:45:55;27.65;;;21.42;;
47021;SDS011;32779;52.264;6.154;2023-05-07T05:48:21;29.52;;;22.63;;
47021;SDS011;32779;52.264;6.154;2023-05-07T05:50:47;28.33;;;22.13;;
47021;SDS011;32779;52.264;6.154;2023-05-07T05:53:13;30.90;;;22.55;;
47021;SDS011;32779;52.264;6.154;2023-05-07T05:58:04;29.70;;;22.55;;
47021;SDS011;32779;52.264;6.154;2023-05-07T06:02:55;35.40;;;22.45;;
47021;SDS011;32779;52.264;6.154;2023-05-07T06:07:46;31.55;;;22.45;;
47021;SDS011;32779;52.264;6.154;2023-05-07T06:10:12;30.33;;;22.70;;
47021;SDS011;32779;52.264;6.154;2023-05-07T06:15:03;30.35;;;21.95;;
47021;SDS011;32779;52.264;6.154;2023-05-07T06:17:29;27.83;;;21.58;;
47021;SDS011;32779;52.264;6.154;2023-05-07T06:19:55;30.33;;;22.73;;
47021;SDS011;32779;52.264;6.154;2023-05-07T06:24:46;28.80;;;22.55;;
47021;SDS011;32779;52.264;6.154;2023-05-07T06:29:37;30.90;;;21.33;;
47021;SDS011;32779;52.264;6.154;2023-05-07T06:34:32;26.70;;;21.70;;
47021;SDS011;32779;52.264;6.154;2023-05-07T06:36:58;29.88;;;21.70;;
47021;SDS011;32779;52.264;6.154;2023-05-07T06:39:23;30.35;;;23.35;;
47021;SDS011;32779;52.264;6.154;2023-05-07T06:41:49;29.35;;;21.70;;
47021;SDS011;32779;52.264;6.154;2023-05-07T06:46:40;25.58;;;21.23;;
47021;SDS011;32779;52.264;6.154;2023-05-07T06:49:06;27.60;;;21.35;;
47021;SDS011;32779;52.264;6.154;2023-05-07T06:53:57;26.08;;;20.80;;
47021;SDS011;32779;52.264;6.154;2023-05-07T06:56:23;29.30;;;21.23;;
47021;SDS011;32779;52.264;6.154;2023-05-07T06:58:49;27.60;;;22.13;;
47021;SDS011;32779;52.264;6.154;2023-05-07T07:01:14;28.05;;;21.45;;
47021;SDS011;32779;52.264;6.154;2023-05-07T07:06:05;28.95;;;22.02;;
47021;SDS011;32779;52.264;6.154;2023-05-07T07:10:57;27.85;;;21.20;;
47021;SDS011;32779;52.264;6.154;2023-05-07T07:15:48;25.42;;;21.48;;
47021;SDS011;32779;52.264;6.154;2023-05-07T07:18:14;31.60;;;21.67;;
47021;SDS011;32779;52.264;6.154;2023-05-07T07:20:40;30.80;;;21.42;;
47021;SDS011;32779;52.264;6.154;2023-05-07T07:23:05;28.63;;;22.40;;
47021;SDS011;32779;52.264;6.154;2023-05-07T07:27:57;30.75;;;21.55;;
47021;SDS011;32779;52.264;6.154;2023-05-07T07:30:22;26.50;;;21.08;;
47021;SDS011;32779;52.264;6.154;2023-05-07T07:35:14;31.58;;;21.73;;
47021;SDS011;32779;52.264;6.154;2023-05-07T07:37:39;27.25;;;21.67;;
47021;SDS011;32779;52.264;6.154;2023-05-07T07:40:05;30.35;;;22.80;;
47021;SDS011;32779;52.264;6.154;2023-05-07T07:42:31;28.92;;;22.08;;
47021;SDS011;32779;52.264;6.154;2023-05-07T07:44:57;27.15;;;21.73;;
47021;SDS011;32779;52.264;6.154;2023-05-07T07:49:48;28.58;;;21.05;;
47021;SDS011;32779;52.264;6.154;2023-05-07T07:54:40;27.75;;;20.60;;
47021;SDS011;32779;52.264;6.154;2023-05-07T07:59:31;27.27;;;20.77;;
47021;SDS011;32779;52.264;6.154;2023-05-07T08:04:22;27.10;;;20.95;;
47021;SDS011;32779;52.264;6.154;2023-05-07T08:09:13;25.83;;;19.77;;
47021;SDS011;32779;52.264;6.154;2023-05-07T08:14:05;27.58;;;20.58;;
47021;SDS011;32779;52.264;6.154;2023-05-07T08:18:56;25.45;;;19.02;;
47021;SDS011;32779;52.264;6.154;2023-05-07T08:23:47;29.15;;;19.27;;
47021;SDS011;32779;52.264;6.154;2023-05-07T08:28:39;24.50;;;18.35;;
47021;SDS011;32779;52.264;6.154;2023-05-07T08:33:30;22.48;;;19.17;;
47021;SDS011;32779;52.264;6.154;2023-05-07T08:38:21;25.63;;;19.45;;
47021;SDS011;32779;52.264;6.154;2023-05-07T08:43:13;23.75;;;18.98;;
47021;SDS011;32779;52.264;6.154;2023-05-07T08:45:39;26.92;;;19.50;;
47021;SDS011;32779;52.264;6.154;2023-05-07T08:48:08;25.75;;;18.92;;
47021;SDS011;32779;52.264;6.154;2023-05-07T08:50:39;21.77;;;17.73;;
47021;SDS011;32779;52.264;6.154;2023-05-07T08:55:30;22.65;;;18.40;;
47021;SDS011;32779;52.264;6.154;2023-05-07T09:00:22;25.08;;;18.45;;
47021;SDS011;32779;52.264;6.154;2023-05-07T09:05:13;23.90;;;17.90;;
47021;SDS011;32779;52.264;6.154;2023-05-07T09:10:04;25.27;;;18.45;;
47021;SDS011;32779;52.264;6.154;2023-05-07T09:12:31;25.45;;;19.25;;
47021;SDS011;32779;52.264;6.154;2023-05-07T09:17:23;22.38;;;17.88;;
47021;SDS011;32779;52.264;6.154;2023-05-07T09:22:15;22.85;;;18.13;;
47021;SDS011;32779;52.264;6.154;2023-05-07T09:27:12;22.20;;;17.83;;
47021;SDS011;32779;52.264;6.154;2023-05-07T09:29:38;23.65;;;17.35;;
47021;SDS011;32779;52.264;6.154;2023-05-07T09:34:33;23.92;;;16.85;;
47021;SDS011;32779;52.264;6.154;2023-05-07T09:37:00;23.77;;;17.25;;
47021;SDS011;32779;52.264;6.154;2023-05-07T09:39:28;21.95;;;17.05;;
47021;SDS011;32779;52.264;6.154;2023-05-07T09:44:43;24.80;;;16.92;;
47021;SDS011;32779;52.264;6.154;2023-05-07T09:47:09;21.50;;;17.38;;
47021;SDS011;32779;52.264;6.154;2023-05-07T09:49:37;22.67;;;17.63;;
47021;SDS011;32779;52.264;6.154;2023-05-07T09:52:04;21.45;;;17.02;;
47021;SDS011;32779;52.264;6.154;2023-05-07T09:54:33;25.35;;;17.77;;
47021;SDS011;32779;52.264;6.154;2023-05-07T09:57:03;28.23;;;18.20;;
47021;SDS011;32779;52.264;6.154;2023-05-07T09:59:31;23.83;;;16.50;;
47021;SDS011;32779;52.264;6.154;2023-05-07T10:01:58;21.88;;;17.33;;
47021;SDS011;32779;52.264;6.154;2023-05-07T10:04:25;23.02;;;17.55;;
47021;SDS011;32779;52.264;6.154;2023-05-07T10:06:51;21.15;;;17.30;;
47021;SDS011;32779;52.264;6.154;2023-05-07T10:11:43;26.02;;;18.27;;
47021;SDS011;32779;52.264;6.154;2023-05-07T10:14:09;21.70;;;17.83;;
47021;SDS011;32779;52.264;6.154;2023-05-07T10:16:36;21.33;;;17.83;;
47021;SDS011;32779;52.264;6.154;2023-05-07T10:19:03;23.08;;;17.48;;
47021;SDS011;32779;52.264;6.154;2023-05-07T10:21:29;22.80;;;17.70;;
47021;SDS011;32779;52.264;6.154;2023-05-07T10:23:59;22.92;;;17.80;;
47021;SDS011;32779;52.264;6.154;2023-05-07T10:26:31;20.77;;;17.17;;
47021;SDS011;32779;52.264;6.154;2023-05-07T10:28:59;24.15;;;18.42;;
47021;SDS011;32779;52.264;6.154;2023-05-07T10:31:39;24.27;;;18.20;;
47021;SDS011;32779;52.264;6.154;2023-05-07T10:34:28;24.33;;;17.52;;
47021;SDS011;32779;52.264;6.154;2023-05-07T10:37:01;22.92;;;17.40;;
47021;SDS011;32779;52.264;6.154;2023-05-07T10:39:28;23.13;;;17.80;;
47021;SDS011;32779;52.264;6.154;2023-05-07T10:41:54;21.25;;;17.27;;
47021;SDS011;32779;52.264;6.154;2023-05-07T10:47:08;20.15;;;16.90;;
47021;SDS011;32779;52.264;6.154;2023-05-07T10:50:20;21.73;;;16.20;;
47021;SDS011;32779;52.264;6.154;2023-05-07T10:52:29;18.73;;;15.13;;
47021;SDS011;32779;52.264;6.154;2023-05-07T10:57:44;22.25;;;15.82;;
47021;SDS011;32779;52.264;6.154;2023-05-07T11:05:26;25.60;;;15.70;;
47021;SDS011;32779;52.264;6.154;2023-05-07T11:08:03;17.60;;;14.98;;
47021;SDS011;32779;52.264;6.154;2023-05-07T11:14:03;18.35;;;13.10;;
47021;SDS011;32779;52.264;6.154;2023-05-07T11:16:24;17.52;;;15.05;;
47021;SDS011;32779;52.264;6.154;2023-05-07T11:18:52;20.52;;;14.00;;
47021;SDS011;32779;52.264;6.154;2023-05-07T11:21:40;26.30;;;16.80;;
47021;SDS011;32779;52.264;6.154;2023-05-07T11:24:07;20.38;;;16.10;;
47021;SDS011;32779;52.264;6.154;2023-05-07T11:26:43;20.42;;;15.77;;
47021;SDS011;32779;52.264;6.154;2023-05-07T11:29:18;18.40;;;14.35;;
47021;SDS011;32779;52.264;6.154;2023-05-07T11:31:48;18.95;;;16.63;;
47021;SDS011;32779;52.264;6.154;2023-05-07T11:34:15;22.27;;;16.63;;
47021;SDS011;32779;52.264;6.154;2023-05-07T11:36:49;20.23;;;17.00;;
47021;SDS011;32779;52.264;6.154;2023-05-07T11:39:29;18.90;;;15.98;;
47021;SDS011;32779;52.264;6.154;2023-05-07T11:41:57;20.27;;;16.98;;
47021;SDS011;32779;52.264;6.154;2023-05-07T11:44:45;22.20;;;16.30;;
47021;SDS011;32779;52.264;6.154;2023-05-07T11:47:11;21.95;;;17.08;;
47021;SDS011;32779;52.264;6.154;2023-05-07T11:49:43;22.27;;;18.05;;
47021;SDS011;32779;52.264;6.154;2023-05-07T11:52:09;21.50;;;16.85;;
47021;SDS011;32779;52.264;6.154;2023-05-07T11:54:35;20.58;;;17.17;;
47021;SDS011;32779;52.264;6.154;2023-05-07T11:57:02;18.80;;;16.20;;
47021;SDS011;32779;52.264;6.154;2023-05-07T11:59:27;22.52;;;17.10;;
47021;SDS011;32779;52.264;6.154;2023-05-07T12:01:55;20.70;;;17.55;;
47021;SDS011;32779;52.264;6.154;2023-05-07T12:04:22;20.58;;;16.77;;
47021;SDS011;32779;52.264;6.154;2023-05-07T12:06:48;18.80;;;16.15;;
47021;SDS011;32779;52.264;6.154;2023-05-07T12:09:18;22.38;;;16.40;;
47021;SDS011;32779;52.264;6.154;2023-05-07T12:11:45;18.88;;;16.35;;
47021;SDS011;32779;52.264;6.154;2023-05-07T12:14:11;21.48;;;16.60;;
47021;SDS011;32779;52.264;6.154;2023-05-07T12:16:36;21.38;;;16.83;;
47021;SDS011;32779;52.264;6.154;2023-05-07T12:19:04;22.38;;;15.73;;
47021;SDS011;32779;52.264;6.154;2023-05-07T12:21:31;21.00;;;16.05;;
47021;SDS011;32779;52.264;6.154;2023-05-07T12:23:58;18.85;;;16.00;;
47021;SDS011;32779;52.264;6.154;2023-05-07T12:26:23;18.48;;;16.55;;
47021;SDS011;32779;52.264;6.154;2023-05-07T12:28:49;18.45;;;15.18;;
47021;SDS011;32779;52.264;6.154;2023-05-07T12:31:15;18.92;;;16.17;;
47021;SDS011;32779;52.264;6.154;2023-05-07T12:33:41;18.88;;;15.43;;
47021;SDS011;32779;52.264;6.154;2023-05-07T12:36:07;17.70;;;14.88;;
47021;SDS011;32779;52.264;6.154;2023-05-07T12:38:39;16.55;;;13.85;;
47021;SDS011;32779;52.264;6.154;2023-05-07T12:41:08;18.38;;;13.60;;
47021;SDS011;32779;52.264;6.154;2023-05-07T12:43:36;13.93;;;12.25;;
47021;SDS011;32779;52.264;6.154;2023-05-07T12:46:04;18.63;;;14.57;;
47021;SDS011;32779;52.264;6.154;2023-05-07T12:48:30;18.52;;;15.25;;
47021;SDS011;32779;52.264;6.154;2023-05-07T12:50:57;19.73;;;14.70;;
47021;SDS011;32779;52.264;6.154;2023-05-07T12:53:24;21.13;;;14.48;;
47021;SDS011;32779;52.264;6.154;2023-05-07T12:55:52;21.38;;;15.25;;
47021;SDS011;32779;52.264;6.154;2023-05-07T12:58:26;18.55;;;14.32;;
47021;SDS011;32779;52.264;6.154;2023-05-07T13:00:58;20.77;;;15.98;;
47021;SDS011;32779;52.264;6.154;2023-05-07T13:03:26;18.33;;;15.05;;
47021;SDS011;32779;52.264;6.154;2023-05-07T13:05:53;18.23;;;15.43;;
47021;SDS011;32779;52.264;6.154;2023-05-07T13:08:24;18.02;;;15.02;;
47021;SDS011;32779;52.264;6.154;2023-05-07T13:10:49;17.38;;;14.45;;
47021;SDS011;32779;52.264;6.154;2023-05-07T13:13:15;17.98;;;15.15;;
47021;SDS011;32779;52.264;6.154;2023-05-07T13:15:40;18.38;;;15.88;;
47021;SDS011;32779;52.264;6.154;2023-05-07T13:18:06;19.90;;;16.42;;
47021;SDS011;32779;52.264;6.154;2023-05-07T13:20:31;20.65;;;15.93;;
47021;SDS011;32779;52.264;6.154;2023-05-07T13:22:57;17.63;;;14.48;;
47021;SDS011;32779;52.264;6.154;2023-05-07T13:25:23;20.15;;;15.25;;
47021;SDS011;32779;52.264;6.154;2023-05-07T13:27:48;18.20;;;15.30;;
47021;SDS011;32779;52.264;6.154;2023-05-07T13:30:14;20.83;;;15.20;;
47021;SDS011;32779;52.264;6.154;2023-05-07T13:32:39;20.30;;;14.50;;
47021;SDS011;32779;52.264;6.154;2023-05-07T13:35:05;18.02;;;15.98;;
47021;SDS011;32779;52.264;6.154;2023-05-07T13:37:31;16.75;;;14.30;;
47021;SDS011;32779;52.264;6.154;2023-05-07T13:39:57;20.92;;;15.65;;
47021;SDS011;32779;52.264;6.154;2023-05-07T13:42:23;17.42;;;15.32;;
47021;SDS011;32779;52.264;6.154;2023-05-07T13:44:48;19.80;;;15.38;;
47021;SDS011;32779;52.264;6.154;2023-05-07T13:47:14;21.70;;;15.70;;
47021;SDS011;32779;52.264;6.154;2023-05-07T13:49:39;19.92;;;15.80;;
47021;SDS011;32779;52.264;6.154;2023-05-07T13:52:05;18.85;;;14.70;;
47021;SDS011;32779;52.264;6.154;2023-05-07T13:54:30;16.55;;;14.13;;
47021;SDS011;32779;52.264;6.154;2023-05-07T13:56:56;19.98;;;14.70;;
47021;SDS011;32779;52.264;6.154;2023-05-07T13:59:21;18.42;;;14.32;;
47021;SDS011;32779;52.264;6.154;2023-05-07T14:01:47;18.00;;;14.65;;
47021;SDS011;32779;52.264;6.154;2023-05-07T14:04:12;17.63;;;14.73;;
47021;SDS011;32779;52.264;6.154;2023-05-07T14:06:38;17.83;;;14.95;;
47021;SDS011;32779;52.264;6.154;2023-05-07T14:09:04;19.98;;;15.80;;
47021;SDS011;32779;52.264;6.154;2023-05-07T14:11:29;19.33;;;15.80;;
47021;SDS011;32779;52.264;6.154;2023-05-07T14:13:55;19.00;;;16.30;;
47021;SDS011;32779;52.264;6.154;2023-05-07T14:16:21;20.83;;;16.35;;
47021;SDS011;32779;52.264;6.154;2023-05-07T14:18:47;19.77;;;16.90;;
47021;SDS011;32779;52.264;6.154;2023-05-07T14:21:12;21.13;;;16.05;;
47021;SDS011;32779;52.264;6.154;2023-05-07T14:23:38;21.08;;;16.27;;
47021;SDS011;32779;52.264;6.154;2023-05-07T14:26:04;18.48;;;15.05;;
47021;SDS011;32779;52.264;6.154;2023-05-07T14:28:30;22.08;;;16.45;;
47021;SDS011;32779;52.264;6.154;2023-05-07T14:30:56;22.90;;;17.25;;
47021;SDS011;32779;52.264;6.154;2023-05-07T14:33:21;20.40;;;15.20;;
47021;SDS011;32779;52.264;6.154;2023-05-07T14:35:47;20.05;;;16.20;;
47021;SDS011;32779;52.264;6.154;2023-05-07T14:38:14;18.20;;;15.63;;
47021;SDS011;32779;52.264;6.154;2023-05-07T14:40:40;19.67;;;15.65;;
47021;SDS011;32779;52.264;6.154;2023-05-07T14:43:06;20.88;;;15.68;;
47021;SDS011;32779;52.264;6.154;2023-05-07T14:45:31;21.17;;;16.27;;
47021;SDS011;32779;52.264;6.154;2023-05-07T14:47:57;21.38;;;15.70;;
47021;SDS011;32779;52.264;6.154;2023-05-07T14:50:22;22.40;;;15.82;;
47021;SDS011;32779;52.264;6.154;2023-05-07T14:52:48;20.80;;;15.48;;
47021;SDS011;32779;52.264;6.154;2023-05-07T14:55:14;19.25;;;14.77;;
47021;SDS011;32779;52.264;6.154;2023-05-07T14:57:39;23.67;;;13.73;;
47021;SDS011;32779;52.264;6.154;2023-05-07T15:00:05;17.38;;;13.50;;
47021;SDS011;32779;52.264;6.154;2023-05-07T15:02:32;19.17;;;13.73;;
47021;SDS011;32779;52.264;6.154;2023-05-07T15:04:58;18.08;;;14.55;;
47021;SDS011;32779;52.264;6.154;2023-05-07T15:07:24;22.90;;;14.50;;
47021;SDS011;32779;52.264;6.154;2023-05-07T15:09:49;18.05;;;14.02;;
47021;SDS011;32779;52.264;6.154;2023-05-07T15:12:16;17.80;;;14.65;;
47021;SDS011;32779;52.264;6.154;2023-05-07T15:14:41;20.42;;;14.30;;
47021;SDS011;32779;52.264;6.154;2023-05-07T15:17:07;17.40;;;14.43;;
47021;SDS011;32779;52.264;6.154;2023-05-07T15:19:32;17.67;;;14.13;;
47021;SDS011;32779;52.264;6.154;2023-05-07T15:21:59;16.45;;;13.63;;
47021;SDS011;32779;52.264;6.154;2023-05-07T15:24:28;16.70;;;14.77;;
47021;SDS011;32779;52.264;6.154;2023-05-07T15:26:55;18.20;;;15.00;;
47021;SDS011;32779;52.264;6.154;2023-05-07T15:29:20;16.15;;;13.23;;
47021;SDS011;32779;52.264;6.154;2023-05-07T15:31:46;17.88;;;13.50;;
47021;SDS011;32779;52.264;6.154;2023-05-07T15:34:12;17.75;;;14.10;;
47021;SDS011;32779;52.264;6.154;2023-05-07T15:36:39;16.85;;;14.18;;
47021;SDS011;32779;52.264;6.154;2023-05-07T15:39:05;17.30;;;13.45;;
47021;SDS011;32779;52.264;6.154;2023-05-07T15:41:31;18.70;;;14.57;;
47021;SDS011;32779;52.264;6.154;2023-05-07T15:43:56;20.77;;;15.82;;
47021;SDS011;32779;52.264;6.154;2023-05-07T15:46:22;21.50;;;16.40;;
47021;SDS011;32779;52.264;6.154;2023-05-07T15:48:49;19.33;;;15.57;;
47021;SDS011;32779;52.264;6.154;2023-05-07T15:51:15;18.25;;;14.98;;
47021;SDS011;32779;52.264;6.154;2023-05-07T15:53:45;16.83;;;12.68;;
47021;SDS011;32779;52.264;6.154;2023-05-07T15:56:11;14.32;;;10.07;;
47021;SDS011;32779;52.264;6.154;2023-05-07T15:58:37;13.00;;;9.23;;
47021;SDS011;32779;52.264;6.154;2023-05-07T16:01:02;13.77;;;8.70;;
47021;SDS011;32779;52.264;6.154;2023-05-07T16:03:28;10.05;;;7.82;;
47021;SDS011;32779;52.264;6.154;2023-05-07T16:05:55;9.35;;;6.85;;
47021;SDS011;32779;52.264;6.154;2023-05-07T16:08:26;9.23;;;7.00;;
47021;SDS011;32779;52.264;6.154;2023-05-07T16:13:18;10.55;;;7.30;;
47021;SDS011;32779;52.264;6.154;2023-05-07T16:15:47;14.60;;;6.65;;
47021;SDS011;32779;52.264;6.154;2023-05-07T16:18:12;11.02;;;8.45;;
47021;SDS011;32779;52.264;6.154;2023-05-07T16:20:40;14.23;;;8.07;;
47021;SDS011;32779;52.264;6.154;2023-05-07T16:23:09;11.85;;;8.80;;
47021;SDS011;32779;52.264;6.154;2023-05-07T16:25:36;14.07;;;9.57;;
47021;SDS011;32779;52.264;6.154;2023-05-07T16:30:28;16.08;;;10.07;;
47021;SDS011;32779;52.264;6.154;2023-05-07T16:35:19;15.15;;;10.65;;
47021;SDS011;32779;52.264;6.154;2023-05-07T16:40:10;18.13;;;12.95;;
47021;SDS011;32779;52.264;6.154;2023-05-07T16:42:36;14.05;;;12.18;;
47021;SDS011;32779;52.264;6.154;2023-05-07T16:45:02;17.30;;;12.80;;
47021;SDS011;32779;52.264;6.154;2023-05-07T16:49:54;15.88;;;12.88;;
47021;SDS011;32779;52.264;6.154;2023-05-07T16:54:45;19.40;;;14.75;;
47021;SDS011;32779;52.264;6.154;2023-05-07T16:59:36;20.08;;;15.52;;
47021;SDS011;32779;52.264;6.154;2023-05-07T17:04:27;25.00;;;16.73;;
47021;SDS011;32779;52.264;6.154;2023-05-07T17:06:53;24.42;;;17.83;;
47021;SDS011;32779;52.264;6.154;2023-05-07T17:09:21;24.38;;;17.98;;
47021;SDS011;32779;52.264;6.154;2023-05-07T17:11:46;22.70;;;18.00;;
47021;SDS011;32779;52.264;6.154;2023-05-07T17:16:37;21.80;;;16.20;;
47021;SDS011;32779;52.264;6.154;2023-05-07T17:19:03;22.52;;;17.55;;
47021;SDS011;32779;52.264;6.154;2023-05-07T17:21:29;23.50;;;17.00;;
47021;SDS011;32779;52.264;6.154;2023-05-07T17:26:20;22.50;;;16.85;;
47021;SDS011;32779;52.264;6.154;2023-05-07T17:31:11;20.73;;;16.48;;
47021;SDS011;32779;52.264;6.154;2023-05-07T17:36:02;21.70;;;16.40;;
47021;SDS011;32779;52.264;6.154;2023-05-07T17:38:28;22.65;;;17.42;;
47021;SDS011;32779;52.264;6.154;2023-05-07T17:40:55;24.73;;;19.50;;
47021;SDS011;32779;52.264;6.154;2023-05-07T17:43:21;23.25;;;19.02;;
47021;SDS011;32779;52.264;6.154;2023-05-07T17:48:13;18.70;;;15.30;;
47021;SDS011;32779;52.264;6.154;2023-05-07T17:50:39;21.63;;;16.05;;
47021;SDS011;32779;52.264;6.154;2023-05-07T17:55:30;21.35;;;16.58;;
47021;SDS011;32779;52.264;6.154;2023-05-07T17:57:57;20.52;;;16.65;;
47021;SDS011;32779;52.264;6.154;2023-05-07T18:00:23;19.42;;;15.50;;
47021;SDS011;32779;52.264;6.154;2023-05-07T18:05:18;21.50;;;16.05;;
47021;SDS011;32779;52.264;6.154;2023-05-07T18:10:09;20.73;;;16.38;;